Time;durP1;ratioP1;P1;durP2;ratioP2;P2;SDS_P1;SDS_P2;PMS_P1;PMS_P2;Temp;Humidity;BMP_temperature;BMP_pressure;BME280_temperature;BME280_humidity;BME280_pressure;Samples;Min_cycle;Max_cycle;Signal;HPM_P1;HPM_P2
2022/01/08 00:01:17;;;;;;;81.13;32.43;;;;;;;-4.55;100.00;101981.68;1661978;84;21072;-60
2022/01/08 00:03:45;;;;;;;76.57;29.37;;;;;;;-4.57;100.00;101993.73;1636056;87;21464;-59
2022/01/08 00:06:12;;;;;;;83.20;32.70;;;;;;;-4.61;100.00;101995.66;1632636;87;21091;-59
2022/01/08 00:08:39;;;;;;;77.23;31.50;;;;;;;-4.56;100.00;101987.52;1630981;88;21032;-60
2022/01/08 00:11:07;;;;;;;75.47;29.97;;;;;;;-4.55;100.00;101983.34;1638663;86;21047;-59
2022/01/08 00:13:37;;;;;;;81.60;32.57;;;;;;;-4.45;100.00;101984.18;1641181;85;20996;-59
2022/01/08 00:16:05;;;;;;;77.37;32.97;;;;;;;-4.43;100.00;101984.70;1660590;86;20992;-59
2022/01/08 00:18:33;;;;;;;94.77;34.87;;;;;;;-4.36;100.00;101982.43;1659932;86;21626;-59
2022/01/08 00:21:00;;;;;;;87.80;34.80;;;;;;;-4.34;100.00;101977.06;1675147;84;21022;-60
2022/01/08 00:23:27;;;;;;;90.77;35.77;;;;;;;-4.36;100.00;101974.52;1670247;85;21047;-59
2022/01/08 00:25:54;;;;;;;87.63;34.60;;;;;;;-4.36;100.00;101972.00;1668991;86;21568;-59
2022/01/08 00:28:21;;;;;;;90.40;35.23;;;;;;;-4.43;100.00;101977.16;1640033;87;21085;-59
2022/01/08 00:30:50;;;;;;;93.77;36.93;;;;;;;-4.41;100.00;101983.91;1637924;86;21195;-59
2022/01/08 00:33:19;;;;;;;93.23;33.87;;;;;;;-4.45;100.00;101977.48;1640110;87;21109;-61
2022/01/08 00:35:46;;;;;;;87.23;35.07;;;;;;;-4.56;100.00;101974.95;1663143;86;21508;-59
2022/01/08 00:38:13;;;;;;;84.47;33.80;;;;;;;-4.66;100.00;101976.63;1663477;85;21051;-59
2022/01/08 00:40:40;;;;;;;85.17;34.47;;;;;;;-4.71;100.00;101976.41;1663326;85;21074;-59
2022/01/08 00:43:07;;;;;;;84.50;34.40;;;;;;;-4.71;100.00;101981.43;1663024;86;21165;-59
2022/01/08 00:45:34;;;;;;;84.47;33.47;;;;;;;-4.66;100.00;101987.52;1639503;86;21064;-59
2022/01/08 00:48:01;;;;;;;83.90;35.23;;;;;;;-4.63;100.00;101986.78;1667100;86;21110;-59
2022/01/08 00:50:28;;;;;;;82.40;33.67;;;;;;;-4.73;100.00;101978.00;1664311;86;21044;-59
2022/01/08 00:52:55;;;;;;;82.80;32.97;;;;;;;-4.77;100.00;101971.12;1662996;86;21091;-59
2022/01/08 00:55:22;;;;;;;84.67;34.37;;;;;;;-4.91;100.00;101976.81;1663290;85;21539;-59
2022/01/08 00:57:49;;;;;;;83.47;31.97;;;;;;;-4.94;100.00;101975.85;1662775;85;21095;-59
2022/01/08 01:00:16;;;;;;;84.53;33.23;;;;;;;-4.90;100.00;101971.42;1662739;86;20996;-59
2022/01/08 01:02:45;;;;;;;79.33;31.33;;;;;;;-4.87;100.00;101973.64;1662680;86;21072;-59
2022/01/08 01:05:12;;;;;;;83.90;31.47;;;;;;;-4.84;100.00;101980.47;1663218;85;21097;-59
2022/01/08 01:07:39;;;;;;;76.10;31.07;;;;;;;-4.84;100.00;101985.09;1662645;86;21051;-59
2022/01/08 01:10:09;;;;;;;80.77;32.80;;;;;;;-4.83;100.00;101978.00;1664894;86;21111;-59
2022/01/08 01:12:37;;;;;;;80.83;32.27;;;;;;;-4.90;100.00;101968.91;1664003;85;21615;-59
2022/01/08 01:15:06;;;;;;;82.87;31.83;;;;;;;-5.01;100.00;101967.17;1662702;86;21531;-59
2022/01/08 01:17:33;;;;;;;79.80;31.40;;;;;;;-5.11;100.00;101972.59;1693363;83;21004;-59
2022/01/08 01:20:00;;;;;;;84.57;33.33;;;;;;;-5.20;100.00;101976.83;1696496;84;21023;-59
2022/01/08 01:22:36;;;;;;;82.50;32.90;;;;;;;-5.21;100.00;101974.23;1693641;84;21023;-59
2022/01/08 01:25:03;;;;;;;78.27;32.10;;;;;;;-5.16;100.00;101979.08;1699336;84;21059;-59
2022/01/08 01:30:15;;;;;;;82.50;30.87;;;;;;;-5.04;100.00;101977.95;1693959;84;21094;-59
2022/01/08 01:41:21;;;;;;;91.07;32.20;;;;;;;-5.37;100.00;101968.93;1695492;83;21103;-59
2022/01/08 01:49:10;;;;;;;85.10;30.40;;;;;;;-5.45;100.00;101979.50;1696214;84;21122;-60
2022/01/08 01:51:39;;;;;;;109.77;36.30;;;;;;;-5.33;100.00;101980.83;1693453;84;21063;-59
2022/01/08 01:54:06;;;;;;;124.87;36.43;;;;;;;-5.27;100.00;101978.22;1690432;84;21028;-60
2022/01/08 01:56:33;;;;;;;120.97;38.50;;;;;;;-5.26;100.00;101978.66;1691660;84;21086;-59
2022/01/08 01:59:00;;;;;;;120.43;37.73;;;;;;;-5.29;100.00;101988.58;1692013;85;21032;-59
2022/01/08 02:01:28;;;;;;;105.37;35.00;;;;;;;-5.36;100.00;101995.77;1696946;83;21075;-59
2022/01/08 02:03:55;;;;;;;96.33;33.20;;;;;;;-5.41;100.00;101995.56;1693880;83;21536;-59
2022/01/08 02:06:21;;;;;;;102.07;35.20;;;;;;;-5.38;100.00;102002.36;1696229;84;21087;-59
2022/01/08 02:08:48;;;;;;;112.50;37.30;;;;;;;-5.35;100.00;102001.23;1693635;84;21086;-59
2022/01/08 02:11:18;;;;;;;101.47;36.07;;;;;;;-5.36;100.00;102000.38;1670752;84;21081;-59
2022/01/08 02:13:44;;;;;;;105.73;35.93;;;;;;;-5.37;100.00;102004.06;1697346;84;21527;-59
2022/01/08 02:16:18;;;;;;;89.00;33.10;;;;;;;-5.37;100.00;102005.31;1698636;84;21563;-59
2022/01/08 02:18:47;;;;;;;84.77;33.40;;;;;;;-5.38;100.00;101993.58;1693757;84;21051;-59
2022/01/08 02:21:15;;;;;;;85.83;32.33;;;;;;;-5.49;100.00;102000.23;1696391;83;21058;-59
2022/01/08 02:23:42;;;;;;;72.27;29.60;;;;;;;-5.57;100.00;101997.77;1694585;83;20980;-59
2022/01/08 02:26:11;;;;;;;74.23;28.97;;;;;;;-5.62;100.00;102003.36;1700788;84;21031;-59
2022/01/08 02:28:40;;;;;;;71.13;28.83;;;;;;;-5.71;100.00;102001.29;1701633;83;21036;-59
2022/01/08 02:31:11;;;;;;;72.60;29.47;;;;;;;-5.72;100.00;102006.67;1693936;84;21040;-59
2022/01/08 02:33:40;;;;;;;76.03;29.47;;;;;;;-5.68;100.00;102000.16;1695486;84;21185;-60
2022/01/08 02:36:08;;;;;;;77.00;27.70;;;;;;;-5.67;100.00;102004.41;1696387;84;21047;-60
2022/01/08 02:38:35;;;;;;;71.83;28.23;;;;;;;-5.74;100.00;102001.98;1694166;83;21040;-60
2022/01/08 02:41:04;;;;;;;70.20;27.73;;;;;;;-5.75;100.00;102009.06;1694678;84;21031;-59
2022/01/08 02:43:34;;;;;;;68.37;27.43;;;;;;;-5.65;100.00;102001.58;1696362;84;21074;-59
2022/01/08 02:46:00;;;;;;;73.67;28.23;;;;;;;-5.51;100.00;102012.25;1697278;84;21039;-59
2022/01/08 02:48:28;;;;;;;77.10;28.53;;;;;;;-5.48;100.00;102011.12;1696829;83;21083;-59
2022/01/08 02:50:55;;;;;;;71.80;30.20;;;;;;;-5.48;100.00;102009.45;1699416;83;21039;-59
2022/01/08 02:53:22;;;;;;;75.50;29.93;;;;;;;-5.54;100.00;102011.69;1694232;84;21079;-59
2022/01/08 02:55:50;;;;;;;72.23;29.37;;;;;;;-5.55;100.00;102016.26;1698088;84;21103;-59
2022/01/08 02:58:16;;;;;;;75.30;28.50;;;;;;;-5.58;100.00;102014.84;1696204;84;21091;-59
2022/01/08 03:00:43;;;;;;;83.90;31.33;;;;;;;-5.59;100.00;102020.67;1691922;85;21055;-59
2022/01/08 03:03:10;;;;;;;79.13;31.43;;;;;;;-5.61;100.00;102024.76;1691846;85;21043;-59
2022/01/08 03:05:36;;;;;;;87.10;31.80;;;;;;;-5.55;100.00;102025.44;1668952;84;21039;-58
2022/01/08 03:08:04;;;;;;;83.17;31.67;;;;;;;-5.53;100.00;102030.14;1694843;83;21032;-59
2022/01/08 03:10:31;;;;;;;86.17;33.67;;;;;;;-5.52;100.00;102025.16;1694190;84;21552;-59
2022/01/08 03:13:00;;;;;;;96.30;38.53;;;;;;;-5.56;100.00;102019.55;1697489;83;21059;-59
2022/01/08 03:15:29;;;;;;;109.20;38.13;;;;;;;-5.64;100.00;102013.31;1698333;84;21079;-59
2022/01/08 03:17:55;;;;;;;102.27;36.60;;;;;;;-5.72;100.00;102020.88;1673715;84;21099;-59
2022/01/08 03:20:22;;;;;;;100.17;36.53;;;;;;;-5.71;100.00;102022.21;1701796;84;21047;-59
2022/01/08 03:22:50;;;;;;;92.53;35.53;;;;;;;-5.65;100.00;102021.64;1694766;84;21086;-58
2022/01/08 03:25:16;;;;;;;84.20;33.60;;;;;;;-5.64;100.00;102014.20;1692199;84;21024;-59
2022/01/08 03:27:44;;;;;;;95.53;34.93;;;;;;;-5.65;100.00;102008.70;1699705;84;21027;-59
2022/01/08 03:30:13;;;;;;;86.43;34.23;;;;;;;-5.61;100.00;102013.88;1695038;83;21039;-59
2022/01/08 03:32:41;;;;;;;84.97;31.03;;;;;;;-5.59;100.00;102011.89;1692969;84;21618;-59
2022/01/08 03:35:09;;;;;;;81.60;31.60;;;;;;;-5.58;100.00;102007.32;1696881;84;21021;-59
2022/01/08 03:37:36;;;;;;;72.27;31.07;;;;;;;-5.65;100.00;102016.22;1694728;84;21504;-59
2022/01/08 03:40:06;;;;;;;74.83;29.23;;;;;;;-5.66;100.00;102009.87;1697803;84;21563;-59
2022/01/08 03:42:33;;;;;;;67.00;27.63;;;;;;;-5.68;100.00;102013.59;1691653;84;21091;-59
2022/01/08 03:45:00;;;;;;;73.77;29.47;;;;;;;-5.69;100.00;102015.61;1693280;84;21188;-58
2022/01/08 03:47:42;;;;;;;70.37;28.33;;;;;;;-5.75;100.00;102012.82;1694100;84;21043;-59
2022/01/08 03:49:59;;;;;;;70.53;27.73;;;;;;;-5.81;100.00;102012.94;1690586;84;21076;-59
2022/01/08 03:52:27;;;;;;;70.87;26.97;;;;;;;-5.84;100.00;102016.14;1701576;84;21563;-59
2022/01/08 03:54:54;;;;;;;68.07;26.30;;;;;;;-5.85;100.00;102024.06;1697429;84;21044;-58
2022/01/08 03:57:20;;;;;;;67.57;25.77;;;;;;;-5.87;100.00;102023.13;1702841;84;21079;-59
2022/01/08 03:59:48;;;;;;;67.47;27.03;;;;;;;-6.03;100.00;102021.97;1698462;84;21103;-59
2022/01/08 04:02:16;;;;;;;67.93;27.17;;;;;;;-6.14;100.00;102023.09;1694495;84;21011;-59
2022/01/08 04:04:43;;;;;;;69.57;27.23;;;;;;;-6.09;100.00;102027.55;1693883;84;21000;-59
2022/01/08 04:07:11;;;;;;;64.87;27.37;;;;;;;-6.11;100.00;102025.76;1691511;85;21055;-59
2022/01/08 04:09:39;;;;;;;76.83;27.87;;;;;;;-6.18;100.00;102027.48;1691868;83;21091;-59
2022/01/08 04:12:08;;;;;;;74.13;27.90;;;;;;;-6.26;100.00;102034.66;1695274;83;21067;-59
2022/01/08 04:14:50;;;;;;;69.47;26.47;;;;;;;-6.33;100.00;102028.45;1691878;85;21027;-59
2022/01/08 04:17:04;;;;;;;72.63;27.43;;;;;;;-6.46;100.00;102037.02;1695555;84;21055;-59
2022/01/08 04:19:31;;;;;;;69.53;27.70;;;;;;;-6.57;100.00;102041.88;1702444;84;21118;-59
2022/01/08 04:22:09;;;;;;;71.87;30.33;;;;;;;-6.55;100.00;102040.70;1699089;84;21509;-59
2022/01/08 04:24:29;;;;;;;85.67;33.87;;;;;;;-6.61;100.00;102041.25;1695767;84;21059;-59
2022/01/08 04:26:58;;;;;;;90.10;36.03;;;;;;;-6.67;100.00;102043.45;1692697;83;21060;-60
2022/01/08 04:29:25;;;;;;;94.80;36.63;;;;;;;-6.69;100.00;102047.52;1700255;84;21039;-59
2022/01/08 04:31:52;;;;;;;91.30;35.23;;;;;;;-6.72;100.00;102048.62;1696244;83;21575;-58
2022/01/08 04:34:21;;;;;;;93.53;36.07;;;;;;;-6.72;100.00;102043.22;1700602;84;21067;-59
2022/01/08 04:36:47;;;;;;;87.43;36.73;;;;;;;-6.65;100.00;102044.02;1695674;84;21064;-59
2022/01/08 04:39:14;;;;;;;99.33;37.07;;;;;;;-6.67;100.00;102041.83;1693021;83;21004;-59
2022/01/08 04:41:43;;;;;;;89.70;34.80;;;;;;;-6.65;100.00;102051.89;1698372;83;21154;-59
2022/01/08 04:44:10;;;;;;;88.20;34.07;;;;;;;-6.58;100.00;102050.58;1697157;84;21000;-59
2022/01/08 04:46:40;;;;;;;87.63;33.63;;;;;;;-6.50;100.00;102051.83;1692000;84;21047;-59
2022/01/08 04:49:08;;;;;;;92.67;35.97;;;;;;;-6.52;100.00;102053.00;1696075;84;21091;-59
2022/01/08 04:51:35;;;;;;;86.80;35.03;;;;;;;-6.43;100.00;102052.99;1693183;84;21086;-59
2022/01/08 04:54:02;;;;;;;89.07;36.97;;;;;;;-6.39;100.00;102048.20;1693619;84;21095;-59
2022/01/08 04:56:30;;;;;;;109.53;43.27;;;;;;;-6.43;100.00;102047.58;1696668;83;21055;-59
2022/01/08 04:58:56;;;;;;;101.97;42.27;;;;;;;-6.46;100.00;102058.31;1702512;83;21550;-59
2022/01/08 05:01:25;;;;;;;104.13;39.13;;;;;;;-6.35;100.00;102049.22;1697996;84;21059;-59
2022/01/08 05:03:52;;;;;;;92.67;38.03;;;;;;;-6.33;100.00;102057.67;1694978;84;21602;-59
2022/01/08 05:06:18;;;;;;;96.37;37.80;;;;;;;-6.29;100.00;102057.05;1703012;84;21027;-58
2022/01/08 05:08:45;;;;;;;82.80;34.37;;;;;;;-6.31;100.00;102055.70;1697655;84;21043;-59
2022/01/08 05:11:12;;;;;;;80.77;32.67;;;;;;;-6.26;100.00;102062.22;1702522;84;21602;-58
2022/01/08 05:13:44;;;;;;;86.27;32.73;;;;;;;-6.28;100.00;102069.66;1697258;84;21052;-59
2022/01/08 05:16:11;;;;;;;90.87;33.77;;;;;;;-6.26;100.00;102067.23;1694687;84;21560;-59
2022/01/08 05:18:38;;;;;;;86.80;33.00;;;;;;;-6.36;100.00;102080.09;1692750;84;21079;-59
2022/01/08 05:21:25;;;;;;;84.60;32.77;;;;;;;-6.47;100.00;102085.42;1691988;85;21008;-59
2022/01/08 05:23:50;;;;;;;86.17;31.40;;;;;;;-6.59;100.00;102087.67;1691423;85;21067;-59
2022/01/08 05:26:17;;;;;;;80.97;32.73;;;;;;;-6.62;100.00;102093.39;1696760;84;21100;-59
2022/01/08 05:28:44;;;;;;;77.47;30.00;;;;;;;-6.54;100.00;102092.14;1693537;84;21050;-59
2022/01/08 05:31:21;;;;;;;80.87;31.13;;;;;;;-6.51;100.00;102092.31;1693907;84;21075;-58
2022/01/08 05:33:45;;;;;;;91.08;33.67;;;;;;;-6.49;100.00;102096.12;1695805;83;21575;-59
2022/01/08 05:36:12;;;;;;;88.40;33.97;;;;;;;-6.50;100.00;102101.94;1691986;84;21100;-59
2022/01/08 05:38:38;;;;;;;84.57;33.73;;;;;;;-6.50;100.00;102103.19;1696162;83;21004;-58
2022/01/08 05:41:05;;;;;;;93.77;35.20;;;;;;;-6.48;100.00;102106.62;1693591;84;21075;-58
2022/01/08 05:43:32;;;;;;;90.20;36.00;;;;;;;-6.47;100.00;102107.08;1693659;83;21064;-58
2022/01/08 05:46:00;;;;;;;93.37;37.67;;;;;;;-6.56;100.00;102107.48;1696080;83;21095;-58
2022/01/08 05:48:27;;;;;;;102.13;40.57;;;;;;;-6.49;100.00;102106.14;1692291;84;21607;-58
2022/01/08 05:50:54;;;;;;;107.00;42.87;;;;;;;-6.51;100.00;102101.08;1699546;83;21527;-59
2022/01/08 05:53:22;;;;;;;99.70;40.77;;;;;;;-6.51;100.00;102107.71;1694121;83;21685;-59
2022/01/08 05:55:49;;;;;;;100.33;37.47;;;;;;;-6.47;100.00;102109.22;1695281;83;21091;-58
2022/01/08 05:58:16;;;;;;;94.00;37.83;;;;;;;-6.40;100.00;102108.28;1698208;83;21578;-59
2022/01/08 06:00:43;;;;;;;86.30;34.87;;;;;;;-6.32;100.00;102110.78;1694235;84;21551;-59
2022/01/08 06:03:10;;;;;;;96.47;39.30;;;;;;;-6.31;100.00;102113.73;1694288;84;21064;-59
2022/01/08 06:05:37;;;;;;;109.00;41.33;;;;;;;-6.22;100.00;102114.22;1695607;83;21000;-59
2022/01/08 06:08:05;;;;;;;103.60;40.27;;;;;;;-6.14;100.00;102108.30;1690781;84;21047;-59
2022/01/08 06:10:32;;;;;;;104.67;39.73;;;;;;;-6.11;100.00;102116.00;1698850;84;21118;-59
2022/01/08 06:12:59;;;;;;;103.33;38.50;;;;;;;-6.05;100.00;102125.08;1692687;83;21047;-59
2022/01/08 06:15:27;;;;;;;91.63;38.43;;;;;;;-6.03;100.00;102113.88;1693182;84;21138;-59
2022/01/08 06:17:56;;;;;;;87.30;35.20;;;;;;;-6.03;100.00;102128.52;1695921;84;21086;-60
2022/01/08 06:20:24;;;;;;;86.60;36.27;;;;;;;-6.05;100.00;102117.55;1697790;84;21748;-59
2022/01/08 06:22:51;;;;;;;87.70;34.93;;;;;;;-6.03;100.00;102112.22;1690984;84;21091;-59
2022/01/08 06:25:19;;;;;;;84.50;35.83;;;;;;;-6.02;100.00;102126.86;1695023;83;21074;-59
2022/01/08 06:27:45;;;;;;;90.77;36.50;;;;;;;-5.96;100.00;102126.80;1695395;83;21115;-59
2022/01/08 06:30:13;;;;;;;80.13;35.13;;;;;;;-5.86;100.00;102128.05;1690594;83;21126;-59
2022/01/08 06:32:40;;;;;;;87.77;35.53;;;;;;;-5.93;100.00;102129.81;1690666;83;21119;-59
2022/01/08 06:35:07;;;;;;;88.23;36.40;;;;;;;-5.95;100.00;102128.91;1693119;84;21590;-59
2022/01/08 06:37:35;;;;;;;92.00;36.63;;;;;;;-5.82;100.00;102125.31;1691185;83;21574;-59
2022/01/08 06:40:01;;;;;;;96.50;37.80;;;;;;;-5.85;100.00;102135.66;1708093;83;21051;-59
2022/01/08 06:42:28;;;;;;;116.10;46.77;;;;;;;-5.75;100.00;102138.23;1678876;83;21508;-57
2022/01/08 06:44:55;;;;;;;125.47;47.77;;;;;;;-5.69;100.00;102135.16;1704324;83;20973;-60
2022/01/08 06:47:22;;;;;;;102.43;42.70;;;;;;;-5.57;100.00;102134.50;1703183;83;21008;-59
2022/01/08 06:49:49;;;;;;;101.73;42.27;;;;;;;-5.48;100.00;102137.43;1706406;83;21138;-59
2022/01/08 06:52:15;;;;;;;107.50;43.23;;;;;;;-5.33;100.00;102137.69;1701699;83;21078;-59
2022/01/08 06:54:42;;;;;;;101.13;41.70;;;;;;;-5.26;100.00;102135.55;1702376;83;21047;-59
2022/01/08 06:57:10;;;;;;;101.13;41.83;;;;;;;-5.20;100.00;102136.23;1700912;84;21067;-59
2022/01/08 06:59:37;;;;;;;88.43;37.93;;;;;;;-5.06;100.00;102144.41;1698973;84;21656;-60
2022/01/08 07:02:04;;;;;;;74.90;32.17;;;;;;;-5.01;100.00;102142.09;1704334;83;21012;-59
2022/01/08 07:04:31;;;;;;;72.43;30.13;;;;;;;-5.02;100.00;102143.76;1704472;83;21111;-60
2022/01/08 07:06:58;;;;;;;68.80;28.90;;;;;;;-4.96;100.00;102142.78;1700564;83;21051;-59
2022/01/08 07:09:26;;;;;;;71.83;30.07;;;;;;;-4.80;100.00;102139.31;1698074;83;21067;-59
2022/01/08 07:11:53;;;;;;;71.97;32.23;;;;;;;-4.66;100.00;102134.91;1690879;84;21052;-58
2022/01/08 07:14:21;;;;;;;71.33;31.27;;;;;;;-4.52;100.00;102139.27;1693644;83;21023;-59
2022/01/08 07:16:49;;;;;;;77.23;35.70;;;;;;;-4.37;100.00;102142.46;1690991;84;21036;-59
2022/01/08 07:19:16;;;;;;;79.70;32.03;;;;;;;-4.39;100.00;102134.00;1691255;83;21024;-59
2022/01/08 07:21:42;;;;;;;63.87;29.13;;;;;;;-4.26;100.00;102137.89;1692769;83;21063;-59
2022/01/08 07:24:09;;;;;;;49.07;21.40;;;;;;;-4.15;100.00;102136.70;1691865;83;21067;-59
2022/01/08 07:26:36;;;;;;;52.97;24.10;;;;;;;-3.98;100.00;102129.00;1689852;83;21039;-59
2022/01/08 07:29:03;;;;;;;40.83;20.23;;;;;;;-3.84;100.00;102136.72;1696067;84;21027;-59
2022/01/08 07:31:31;;;;;;;39.07;18.87;;;;;;;-3.73;100.00;102132.11;1693163;84;21102;-59
2022/01/08 07:33:58;;;;;;;43.63;19.73;;;;;;;-3.57;100.00;102137.38;1694155;83;21087;-59
2022/01/08 07:36:26;;;;;;;47.70;19.73;;;;;;;-3.50;100.00;102135.57;1691472;84;21075;-60
2022/01/08 07:38:53;;;;;;;40.33;18.77;;;;;;;-3.43;100.00;102132.11;1691748;84;21059;-59
2022/01/08 07:41:21;;;;;;;43.07;19.67;;;;;;;-3.31;100.00;102137.14;1691167;84;22243;-59
2022/01/08 07:43:48;;;;;;;55.53;22.97;;;;;;;-3.19;100.00;102131.73;1690015;83;21336;-59
2022/01/08 07:46:16;;;;;;;47.30;21.07;;;;;;;-3.10;100.00;102130.80;1698962;82;21079;-59
2022/01/08 07:48:43;;;;;;;51.83;23.10;;;;;;;-3.00;100.00;102137.05;1692001;84;21067;-60
2022/01/08 07:51:10;;;;;;;47.87;21.53;;;;;;;-2.85;100.00;102133.45;1692725;84;21552;-60
2022/01/08 07:53:37;;;;;;;31.90;14.03;;;;;;;-2.78;100.00;102142.50;1693012;84;21508;-60
2022/01/08 07:56:05;;;;;;;28.67;12.43;;;;;;;-2.65;100.00;102135.45;1691741;83;21102;-59
2022/01/08 07:58:32;;;;;;;24.07;12.33;;;;;;;-2.54;100.00;102136.23;1690250;83;21118;-59
2022/01/08 08:01:00;;;;;;;25.00;12.80;;;;;;;-2.43;100.00;102124.88;1691344;84;21035;-59
2022/01/08 08:03:27;;;;;;;24.87;12.57;;;;;;;-2.38;100.00;102125.89;1690074;84;21063;-59
2022/01/08 08:05:54;;;;;;;26.80;12.63;;;;;;;-2.28;100.00;102120.77;1689655;85;21118;-59
2022/01/08 08:08:21;;;;;;;24.70;12.60;;;;;;;-2.15;100.00;102119.52;1689780;83;21607;-59
2022/01/08 08:10:50;;;;;;;27.93;12.40;;;;;;;-2.12;100.00;102115.84;1689882;85;21071;-59
2022/01/08 08:13:20;;;;;;;24.27;11.33;;;;;;;-2.00;100.00;102113.73;1693648;84;21055;-59
2022/01/08 08:15:48;;;;;;;20.97;10.33;;;;;;;-1.94;100.00;102108.89;1689976;84;21055;-59
2022/01/08 08:18:15;;;;;;;16.97;9.30;;;;;;;-1.82;100.00;102106.77;1695489;83;21078;-59
2022/01/08 08:20:42;;;;;;;15.87;8.30;;;;;;;-1.70;100.00;102110.51;1689976;83;21602;-59
2022/01/08 08:23:11;;;;;;;17.27;7.70;;;;;;;-1.62;100.00;102101.51;1689588;84;21150;-59
2022/01/08 08:25:38;;;;;;;11.73;6.53;;;;;;;-1.51;100.00;102100.58;1691219;84;21063;-59
2022/01/08 08:28:07;;;;;;;10.68;5.40;;;;;;;-1.47;100.00;102099.45;1690967;84;21091;-59
2022/01/08 08:30:34;;;;;;;11.75;5.62;;;;;;;-1.37;100.00;102095.95;1691891;84;21063;-59
2022/01/08 08:33:02;;;;;;;17.27;7.10;;;;;;;-1.29;100.00;102090.73;1689968;85;21646;-58
2022/01/08 08:35:30;;;;;;;8.53;4.00;;;;;;;-1.13;100.00;102094.57;1690377;85;21637;-59
2022/01/08 08:37:58;;;;;;;9.65;4.60;;;;;;;-1.05;100.00;102086.39;1690132;85;21079;-59
2022/01/08 08:40:25;;;;;;;13.13;6.22;;;;;;;-0.93;100.00;102072.38;1690076;84;21106;-59
2022/01/08 08:42:52;;;;;;;7.30;3.62;;;;;;;-0.87;100.00;102072.58;1691139;84;21591;-59
2022/01/08 08:45:19;;;;;;;11.88;5.40;;;;;;;-0.75;100.00;102074.19;1690135;84;21078;-59
2022/01/08 08:47:46;;;;;;;10.20;4.10;;;;;;;-0.70;100.00;102069.24;1690226;83;21540;-59
2022/01/08 08:50:15;;;;;;;9.18;5.50;;;;;;;-0.70;100.00;102072.62;1690205;84;21131;-60
2022/01/08 08:52:43;;;;;;;9.90;5.37;;;;;;;-0.66;100.00;102069.36;1689792;85;21138;-59
2022/01/08 08:55:10;;;;;;;8.05;4.20;;;;;;;-0.61;100.00;102064.41;1690896;83;21134;-59
2022/01/08 08:57:38;;;;;;;14.90;6.65;;;;;;;-0.51;100.00;102060.47;1690996;83;21063;-59
2022/01/08 09:00:06;;;;;;;12.55;6.50;;;;;;;-0.47;100.00;102061.00;1691030;84;21027;-60
2022/01/08 09:02:34;;;;;;;6.70;3.72;;;;;;;-0.39;100.00;102053.61;1694271;84;21125;-59
2022/01/08 09:05:02;;;;;;;12.75;5.55;;;;;;;-0.34;100.00;102046.59;1690474;85;21090;-59
2022/01/08 09:07:28;;;;;;;6.45;3.50;;;;;;;-0.25;100.00;102043.02;1692405;83;21107;-59
2022/01/08 09:09:57;;;;;;;13.72;4.80;;;;;;;-0.23;100.00;102031.67;1690986;83;21083;-59
2022/01/08 09:12:24;;;;;;;10.25;5.67;;;;;;;-0.18;100.00;102031.78;1669155;83;21008;-59
2022/01/08 09:14:51;;;;;;;11.15;5.25;;;;;;;-0.14;100.00;102027.23;1691497;84;21071;-59
2022/01/08 09:17:20;;;;;;;13.03;5.97;;;;;;;-0.12;100.00;102023.07;1690787;85;21075;-59
2022/01/08 09:19:48;;;;;;;22.77;9.13;;;;;;;-0.06;100.00;102020.30;1697085;84;21086;-59
2022/01/08 09:22:15;;;;;;;14.35;5.80;;;;;;;-0.02;100.00;102013.61;1687338;84;20991;-59
2022/01/08 09:24:44;;;;;;;11.30;5.00;;;;;;;-0.03;100.00;102014.03;1683158;85;21107;-58
2022/01/08 09:27:11;;;;;;;16.80;7.20;;;;;;;0.02;100.00;102009.09;1686490;85;21032;-58
2022/01/08 09:29:39;;;;;;;10.30;5.35;;;;;;;0.01;100.00;102004.84;1687790;83;21532;-59
2022/01/08 09:32:08;;;;;;;17.65;8.10;;;;;;;0.06;100.00;102006.20;1669566;84;21567;-59
2022/01/08 09:34:36;;;;;;;18.15;8.00;;;;;;;0.06;100.00;102000.75;1693990;84;21104;-59
2022/01/08 09:37:06;;;;;;;17.37;7.20;;;;;;;0.01;100.00;102000.20;1696884;83;21027;-58
2022/01/08 09:39:40;;;;;;;15.72;6.55;;;;;;;-0.02;100.00;101995.89;1694144;84;21578;-58
2022/01/08 09:42:08;;;;;;;17.02;7.58;;;;;;;0.04;100.00;101987.59;1693044;84;21071;-58
2022/01/08 09:44:44;;;;;;;23.80;10.25;;;;;;;0.06;100.00;101990.63;1698034;84;21019;-58
2022/01/08 09:47:09;;;;;;;8.28;4.53;;;;;;;0.17;100.00;101992.97;1685898;84;21071;-59
2022/01/08 09:49:38;;;;;;;14.33;6.35;;;;;;;0.15;100.00;101983.64;1690599;83;21721;-59
2022/01/08 09:52:07;;;;;;;9.05;4.37;;;;;;;0.17;100.00;101977.78;1695760;84;21582;-59
2022/01/08 09:54:35;;;;;;;7.17;4.42;;;;;;;0.19;100.00;101974.88;1691655;84;21047;-58
2022/01/08 09:57:02;;;;;;;5.85;2.83;;;;;;;0.28;100.00;101973.36;1691363;84;21063;-58
2022/01/08 09:59:29;;;;;;;8.05;3.58;;;;;;;0.24;100.00;101969.90;1696631;84;21099;-58
2022/01/08 10:01:59;;;;;;;13.83;5.58;;;;;;;0.29;100.00;101968.76;1696900;83;21036;-58
2022/01/08 10:04:30;;;;;;;13.40;6.42;;;;;;;0.29;100.00;101962.00;1692433;83;21067;-59
2022/01/08 10:07:23;;;;;;;10.15;4.78;;;;;;;0.37;100.00;101951.63;1690853;84;21765;-59
2022/01/08 10:10:15;;;;;;;12.40;5.72;;;;;;;0.42;100.00;101940.73;1685694;84;21119;-58
2022/01/08 10:12:57;;;;;;;9.78;4.75;;;;;;;0.50;100.00;101937.95;1691148;84;21265;-59
2022/01/08 10:18:05;;;;;;;6.50;3.20;;;;;;;0.52;100.00;101937.56;1687821;83;20529;-59
2022/01/08 10:20:39;;;;;;;30.92;12.82;;;;;;;0.58;100.00;101934.73;1708978;83;21090;-59
2022/01/08 10:23:12;;;;;;;32.10;12.73;;;;;;;0.64;100.00;101930.62;1663795;86;21111;-59
2022/01/08 10:26:03;;;;;;;10.58;3.75;;;;;;;0.69;100.00;101934.09;1663417;86;21048;-59
2022/01/08 10:28:45;;;;;;;23.35;7.33;;;;;;;0.72;100.00;101931.63;1684428;83;21095;-59
2022/01/08 10:31:21;;;;;;;21.73;8.50;;;;;;;0.71;100.00;101928.25;1624362;87;21115;-59
2022/01/08 10:33:52;;;;;;;13.60;5.65;;;;;;;0.81;100.00;101929.25;1653903;86;21516;-59
2022/01/08 10:36:32;;;;;;;11.68;4.58;;;;;;;0.87;100.00;101931.05;1653497;86;21511;-59
2022/01/08 10:39:04;;;;;;;15.98;6.25;;;;;;;0.85;100.00;101937.36;1699411;83;21000;-59
2022/01/08 10:41:31;;;;;;;8.88;3.55;;;;;;;0.86;100.00;101922.61;1705461;83;21558;-59
2022/01/08 10:44:21;;;;;;;11.88;4.60;;;;;;;0.87;100.00;101920.49;1694424;83;21523;-59
2022/01/08 10:47:03;;;;;;;6.50;2.90;;;;;;;0.92;100.00;101920.18;1674744;84;21086;-60
2022/01/08 10:49:42;;;;;;;5.33;2.80;;;;;;;0.96;100.00;101923.21;1637216;87;21077;-59
2022/01/08 10:52:20;;;;;;;4.97;2.30;;;;;;;0.99;100.00;101919.88;1701070;83;21080;-58
2022/01/08 10:54:51;;;;;;;7.60;3.55;;;;;;;1.02;100.00;101921.63;1691299;83;21054;-58
2022/01/08 10:57:19;;;;;;;5.47;2.65;;;;;;;1.05;100.00;101923.78;1685232;84;21630;-59
2022/01/08 10:59:50;;;;;;;10.03;2.33;;;;;;;1.07;99.97;101920.02;1685029;84;21511;-58
2022/01/08 11:02:16;;;;;;;3.35;2.27;;;;;;;1.12;98.87;101921.81;1658446;85;21563;-59
2022/01/08 11:04:52;;;;;;;4.15;1.72;;;;;;;1.14;99.69;101914.23;1685035;85;21051;-58
2022/01/08 11:07:27;;;;;;;4.83;2.20;;;;;;;1.15;98.60;101917.20;1691994;84;21055;-59
2022/01/08 11:10:04;;;;;;;7.83;3.02;;;;;;;1.19;98.91;101916.42;1681904;84;21104;-59
2022/01/08 11:12:39;;;;;;;6.40;3.42;;;;;;;1.21;97.93;101909.69;1689232;85;21071;-58
2022/01/08 11:17:51;;;;;;;6.83;3.08;;;;;;;1.33;97.00;101901.02;1658880;86;20134;-58
2022/01/08 11:20:25;;;;;;;14.45;6.42;;;;;;;1.32;94.97;101897.21;1683877;83;21036;-58
2022/01/08 11:22:54;;;;;;;;;;;;;;;1.36;92.78;101904.89;1691128;85;21082;-59
2022/01/08 11:25:31;;;;;;;9.55;4.60;;;;;;;1.45;91.66;101891.91;1688226;83;20538;-58
2022/01/08 11:28:16;;;;;;;10.50;4.22;;;;;;;1.52;91.53;101896.23;1688687;85;21075;-58
2022/01/08 11:30:48;;;;;;;13.93;6.40;;;;;;;1.60;90.49;101889.59;1678313;85;21123;-59
2022/01/08 11:33:22;;;;;;;6.80;3.10;;;;;;;1.68;88.91;101886.75;1692939;84;21088;-59
2022/01/08 11:35:50;;;;;;;;;;;;;;;1.68;88.35;101881.67;1692898;84;21072;-58